Time;durP1;ratioP1;P1;durP2;ratioP2;P2;SDS_P1;SDS_P2;PMS_P1;PMS_P2;Temp;Humidity;BMP_temperature;BMP_pressure;BME280_temperature;BME280_humidity;BME280_pressure;Samples;Min_cycle;Max_cycle;Signal;HPM_P1;HPM_P2
2023/12/28 00:00:32;;;;;;;17.60;2.20;;;8.90;99.90;;;;;;4869036;29;20045;-66
2023/12/28 00:03:00;;;;;;;21.88;3.33;;;8.80;99.90;;;;;;4868245;29;20528;-68
2023/12/28 00:05:29;;;;;;;17.60;2.78;;;8.80;99.90;;;;;;4875730;29;20049;-65
2023/12/28 00:07:57;;;;;;;21.42;3.55;;;8.80;99.90;;;;;;4873695;29;20056;-61
2023/12/28 00:10:27;;;;;;;18.52;2.75;;;8.80;99.90;;;;;;4856708;29;20084;-63
2023/12/28 00:12:55;;;;;;;19.97;2.83;;;8.70;99.90;;;;;;4860464;29;20065;-64
2023/12/28 00:15:23;;;;;;;15.43;2.60;;;8.70;99.90;;;;;;4857520;29;20226;-61
2023/12/28 00:17:51;;;;;;;23.15;3.03;;;8.80;99.90;;;;;;4869019;29;20041;-61
2023/12/28 00:20:19;;;;;;;19.77;3.15;;;8.70;99.90;;;;;;4858902;29;20045;-62
2023/12/28 00:22:47;;;;;;;24.73;2.83;;;8.70;99.90;;;;;;4861111;29;20052;-69
2023/12/28 00:25:15;;;;;;;25.10;3.30;;;8.80;99.90;;;;;;4875483;29;20065;-67
2023/12/28 00:27:43;;;;;;;18.67;3.22;;;8.80;99.90;;;;;;4863643;29;20057;-67
2023/12/28 00:30:11;;;;;;;21.88;3.42;;;8.70;99.90;;;;;;4871127;29;20057;-62
2023/12/28 00:32:43;;;;;;;17.63;3.28;;;8.60;99.90;;;;;;4842599;29;20057;-66
2023/12/28 00:35:12;;;;;;;32.58;4.40;;;8.40;99.90;;;;;;4870043;29;20115;-67
2023/12/28 00:37:40;;;;;;;29.23;5.47;;;8.20;99.90;;;;;;4864439;29;20064;-64
2023/12/28 00:40:08;;;;;;;23.42;4.28;;;8.00;99.90;;;;;;4871706;29;20052;-61
2023/12/28 00:42:39;;;;;;;32.28;3.75;;;7.80;99.90;;;;;;4858218;29;20054;-62
2023/12/28 00:45:09;;;;;;;27.27;3.22;;;7.60;99.90;;;;;;4858183;29;20045;-63
2023/12/28 00:47:38;;;;;;;44.65;6.00;;;7.50;99.90;;;;;;4864916;29;20045;-62
2023/12/28 00:50:06;;;;;;;30.83;4.82;;;7.40;99.90;;;;;;4854178;29;20062;-62
2023/12/28 00:52:34;;;;;;;32.75;4.18;;;7.30;99.90;;;;;;4868172;29;20048;-61
2023/12/28 00:55:02;;;;;;;30.80;4.65;;;7.30;99.90;;;;;;4858474;29;20045;-62
2023/12/28 00:57:30;;;;;;;25.60;3.67;;;7.20;99.90;;;;;;4863122;29;20518;-60
2023/12/28 00:59:58;;;;;;;26.90;4.82;;;7.30;99.90;;;;;;4854671;29;20057;-62
2023/12/28 01:02:27;;;;;;;21.58;3.17;;;7.40;99.90;;;;;;4860270;29;20044;-62
2023/12/28 01:04:55;;;;;;;30.15;3.55;;;7.50;99.90;;;;;;4869980;29;20053;-63
2023/12/28 01:07:22;;;;;;;20.83;3.80;;;7.60;99.90;;;;;;4864816;29;20084;-63
2023/12/28 01:09:51;;;;;;;28.85;3.97;;;7.60;99.90;;;;;;4868149;29;20486;-62
2023/12/28 01:12:19;;;;;;;21.77;3.33;;;7.60;99.90;;;;;;4864395;29;20061;-64
2023/12/28 01:14:47;;;;;;;28.92;4.22;;;7.50;99.90;;;;;;4862362;29;20053;-61
2023/12/28 01:17:15;;;;;;;35.10;6.07;;;7.50;99.90;;;;;;4862375;29;20398;-63
2023/12/28 01:19:44;;;;;;;30.20;5.30;;;7.40;99.90;;;;;;4846886;29;20346;-63
2023/12/28 01:22:13;;;;;;;26.48;3.50;;;7.40;99.90;;;;;;4865663;29;20049;-64
2023/12/28 01:24:46;;;;;;;28.10;4.72;;;7.30;99.90;;;;;;4860812;29;20049;-61
2023/12/28 01:27:16;;;;;;;25.90;4.45;;;7.30;99.90;;;;;;4857646;29;20057;-63
2023/12/28 01:29:44;;;;;;;27.60;4.70;;;7.30;99.90;;;;;;4858902;29;20068;-63
2023/12/28 01:32:12;;;;;;;34.35;4.43;;;7.30;99.90;;;;;;4852081;29;20060;-63
2023/12/28 01:34:42;;;;;;;31.98;3.92;;;7.40;99.90;;;;;;4854448;29;20045;-62
2023/12/28 01:37:10;;;;;;;21.65;3.03;;;7.60;99.90;;;;;;4856873;29;20052;-62
2023/12/28 01:39:39;;;;;;;24.05;3.33;;;7.70;99.90;;;;;;4857428;29;20065;-62
2023/12/28 01:42:08;;;;;;;;;;;7.80;99.90;;;;;;4862855;29;20060;-62
2023/12/28 01:44:35;;;;;;;22.23;4.10;;;8.00;99.90;;;;;;4864904;29;19927;-62
2023/12/28 01:47:04;;;;;;;32.53;4.25;;;8.10;99.90;;;;;;4864179;29;20238;-62
2023/12/28 01:49:34;;;;;;;26.33;3.65;;;8.20;99.90;;;;;;4852024;29;20049;-61
2023/12/28 01:52:03;;;;;;;27.80;6.18;;;8.30;99.90;;;;;;4856005;29;20406;-61
2023/12/28 01:54:33;;;;;;;22.83;3.40;;;8.50;99.90;;;;;;4859179;29;20053;-62
2023/12/28 01:57:03;;;;;;;24.10;4.72;;;8.50;99.90;;;;;;4868866;29;20413;-67
2023/12/28 01:59:32;;;;;;;21.98;3.20;;;8.70;99.90;;;;;;4862709;29;20064;-62
2023/12/28 02:02:00;;;;;;;24.40;3.97;;;8.80;99.90;;;;;;4869937;29;20049;-63
2023/12/28 02:04:28;;;;;;;13.95;3.05;;;8.80;99.90;;;;;;4867165;29;20056;-61
2023/12/28 02:06:59;;;;;;;21.23;4.10;;;8.90;99.90;;;;;;4865731;29;20477;-62
2023/12/28 02:09:27;;;;;;;23.67;3.53;;;8.80;99.90;;;;;;4850969;29;20606;-61
2023/12/28 02:11:55;;;;;;;33.83;3.08;;;8.60;99.90;;;;;;4855655;29;20060;-62
2023/12/28 02:14:24;;;;;;;20.30;3.42;;;8.60;99.90;;;;;;4859393;29;20061;-64
2023/12/28 02:17:08;;;;;;;31.13;4.10;;;8.60;99.90;;;;;;4865299;29;20052;-62
2023/12/28 02:19:54;;;;;;;26.10;3.25;;;8.50;99.90;;;;;;4851892;29;20076;-62
2023/12/28 02:22:27;;;;;;;17.25;2.97;;;8.50;99.90;;;;;;4856474;29;20056;-60
2023/12/28 02:25:05;;;;;;;30.77;3.20;;;8.50;99.90;;;;;;4858061;29;20051;-61
2023/12/28 02:27:36;;;;;;;28.15;3.55;;;8.50;99.90;;;;;;4862582;29;20053;-61
2023/12/28 02:30:08;;;;;;;34.78;5.43;;;8.60;99.90;;;;;;4856718;29;20242;-62
2023/12/28 02:32:57;;;;;;;14.95;3.83;;;8.70;99.90;;;;;;4857524;29;20037;-60
2023/12/28 02:35:44;;;;;;;30.70;5.05;;;8.80;99.90;;;;;;4859059;29;20406;-62
2023/12/28 02:38:15;;;;;;;25.52;4.93;;;8.90;99.90;;;;;;4870269;29;20438;-63
2023/12/28 02:40:44;;;;;;;17.63;2.67;;;8.90;99.90;;;;;;4877376;29;20045;-62
2023/12/28 02:43:12;;;;;;;29.00;3.97;;;9.00;99.90;;;;;;4875210;29;20041;-63
2023/12/28 02:45:40;;;;;;;30.35;3.20;;;9.00;99.90;;;;;;4864569;29;20053;-62
2023/12/28 02:48:08;;;;;;;27.52;4.40;;;8.90;99.90;;;;;;4864120;29;20406;-61
2023/12/28 02:50:36;;;;;;;26.98;3.17;;;8.90;99.90;;;;;;4874724;29;20058;-62
2023/12/28 02:53:04;;;;;;;29.15;3.25;;;8.90;99.90;;;;;;4870480;29;20049;-63
2023/12/28 02:55:32;;;;;;;23.92;3.63;;;9.00;99.90;;;;;;4878801;29;20037;-68
2023/12/28 02:58:00;;;;;;;21.75;2.88;;;9.00;99.90;;;;;;4855176;29;20072;-61
2023/12/28 03:00:29;;;;;;;18.98;3.10;;;9.10;99.90;;;;;;4880262;29;20056;-61
2023/12/28 03:02:58;;;;;;;19.60;2.83;;;9.20;99.90;;;;;;4878734;29;20393;-62
2023/12/28 03:05:27;;;;;;;16.88;3.15;;;9.30;99.90;;;;;;4880181;29;20048;-61
2023/12/28 03:07:57;;;;;;;24.42;4.20;;;9.30;99.90;;;;;;4869412;29;20041;-62
2023/12/28 03:10:26;;;;;;;25.50;4.32;;;9.40;99.90;;;;;;4861675;29;20053;-65
2023/12/28 03:12:54;;;;;;;23.73;4.00;;;9.40;99.90;;;;;;4861090;29;20058;-61
2023/12/28 03:15:21;;;;;;;24.98;4.22;;;9.40;99.90;;;;;;4861502;29;20061;-63
2023/12/28 03:17:50;;;;;;;35.35;4.35;;;9.40;99.90;;;;;;4870817;29;20213;-63
2023/12/28 03:20:20;;;;;;;23.60;3.10;;;9.40;99.90;;;;;;4877125;29;20049;-61
2023/12/28 03:22:48;;;;;;;22.08;2.80;;;9.40;99.90;;;;;;4875624;29;20049;-62
2023/12/28 03:25:16;;;;;;;18.27;3.00;;;9.40;99.90;;;;;;4875690;29;20516;-65
2023/12/28 03:27:45;;;;;;;20.30;4.40;;;9.40;99.90;;;;;;4854469;29;20038;-64
2023/12/28 03:30:13;;;;;;;18.67;3.00;;;9.50;99.90;;;;;;4865110;29;20048;-65
2023/12/28 03:32:41;;;;;;;26.77;3.80;;;9.50;99.90;;;;;;4875542;29;20063;-64
2023/12/28 03:35:09;;;;;;;15.60;2.80;;;9.50;99.90;;;;;;4877793;29;20417;-62
2023/12/28 03:37:36;;;;;;;26.55;3.47;;;9.50;99.90;;;;;;4870999;29;20058;-63
2023/12/28 03:40:05;;;;;;;35.85;4.90;;;9.40;99.90;;;;;;4859836;29;20046;-64
2023/12/28 03:42:33;;;;;;;24.67;3.93;;;9.40;99.90;;;;;;4860121;29;20041;-62
2023/12/28 03:45:01;;;;;;;27.63;6.15;;;9.30;99.90;;;;;;4862054;29;20049;-71
2023/12/28 03:47:30;;;;;;;28.67;3.15;;;9.30;99.90;;;;;;4877820;29;20081;-63
2023/12/28 03:49:58;;;;;;;17.77;3.93;;;9.20;99.90;;;;;;4878916;29;20061;-63
2023/12/28 03:52:27;;;;;;;26.55;3.97;;;9.20;99.90;;;;;;4860738;29;20074;-62
2023/12/28 03:54:54;;;;;;;37.00;4.50;;;9.10;99.90;;;;;;4858935;29;20049;-61
2023/12/28 03:57:22;;;;;;;29.27;3.80;;;9.10;99.90;;;;;;4865676;29;20053;-62
2023/12/28 03:59:50;;;;;;;44.28;3.97;;;9.00;99.90;;;;;;4858711;29;20049;-61
2023/12/28 04:02:18;;;;;;;23.85;3.53;;;8.90;99.90;;;;;;4865336;29;20060;-62
2023/12/28 04:04:46;;;;;;;32.55;4.47;;;8.90;99.90;;;;;;4878121;29;20045;-66
2023/12/28 04:07:16;;;;;;;38.08;4.35;;;8.80;99.90;;;;;;4878415;29;20390;-63
2023/12/28 04:09:43;;;;;;;;;;;8.80;99.90;;;;;;4879498;29;20388;-62
2023/12/28 04:12:11;;;;;;;34.50;5.50;;;8.80;99.90;;;;;;4876404;29;19939;-62
2023/12/28 04:14:39;;;;;;;33.28;3.85;;;8.80;99.90;;;;;;4877708;29;20552;-61
2023/12/28 04:17:07;;;;;;;45.17;5.45;;;8.80;99.90;;;;;;4877581;29;20049;-62
2023/12/28 04:19:35;;;;;;;19.40;3.30;;;8.90;99.90;;;;;;4861636;29;20064;-63
2023/12/28 04:22:03;;;;;;;31.05;4.05;;;8.80;99.90;;;;;;4860284;29;20144;-62
2023/12/28 04:24:31;;;;;;;41.40;5.82;;;8.90;99.90;;;;;;4859470;29;20053;-64
2023/12/28 04:26:59;;;;;;;29.13;3.90;;;8.90;99.90;;;;;;4861294;29;20057;-61
2023/12/28 04:29:27;;;;;;;26.98;3.72;;;8.90;99.90;;;;;;4876852;29;20398;-62
2023/12/28 04:31:55;;;;;;;31.65;3.97;;;8.90;99.90;;;;;;4877622;29;20063;-61
2023/12/28 04:34:23;;;;;;;31.85;4.53;;;8.80;99.90;;;;;;4877276;29;20524;-64
2023/12/28 04:36:52;;;;;;;27.65;4.03;;;8.80;99.90;;;;;;4877669;29;20497;-62
2023/12/28 04:39:21;;;;;;;30.70;5.25;;;8.80;99.90;;;;;;4877274;29;20064;-63
2023/12/28 04:41:50;;;;;;;16.80;3.37;;;8.70;99.90;;;;;;4877423;29;20053;-62
2023/12/28 04:44:18;;;;;;;23.70;3.55;;;8.70;99.90;;;;;;4877374;29;20781;-60
2023/12/28 04:46:46;;;;;;;29.13;5.32;;;8.70;99.90;;;;;;4876896;29;20482;-63
2023/12/28 04:49:14;;;;;;;35.97;4.90;;;8.60;99.90;;;;;;4878178;29;20545;-63
2023/12/28 04:51:45;;;;;;;28.55;3.47;;;8.60;99.90;;;;;;4875542;29;20056;-63
2023/12/28 04:54:13;;;;;;;43.65;4.60;;;8.60;99.90;;;;;;4877368;29;20056;-60
2023/12/28 04:56:41;;;;;;;28.45;4.25;;;8.50;99.90;;;;;;4842891;29;20415;-62
2023/12/28 04:59:09;;;;;;;19.05;3.75;;;8.50;99.90;;;;;;4888439;29;20049;-62
2023/12/28 05:01:43;;;;;;;28.05;3.78;;;8.50;99.90;;;;;;4876577;29;20041;-62
2023/12/28 05:04:11;;;;;;;31.58;4.97;;;8.50;99.90;;;;;;4870179;29;20057;-62
2023/12/28 05:06:44;;;;;;;29.70;4.55;;;8.50;99.90;;;;;;4858410;29;20076;-60
2023/12/28 05:09:13;;;;;;;27.20;4.67;;;8.40;99.90;;;;;;4863969;29;20411;-62
2023/12/28 05:11:41;;;;;;;20.55;4.28;;;8.40;99.90;;;;;;4859160;29;20080;-61
2023/12/28 05:14:11;;;;;;;37.63;5.47;;;8.40;99.90;;;;;;4859811;29;20529;-64
2023/12/28 05:16:39;;;;;;;35.85;4.57;;;8.40;99.90;;;;;;4871260;29;20057;-61
2023/12/28 05:19:08;;;;;;;35.00;5.03;;;8.40;99.90;;;;;;4873453;29;20045;-62
2023/12/28 05:21:36;;;;;;;35.83;4.65;;;8.30;99.90;;;;;;4863639;29;20041;-60
2023/12/28 05:24:05;;;;;;;23.00;3.72;;;8.30;99.90;;;;;;4859844;29;20058;-62
2023/12/28 05:26:33;;;;;;;29.05;3.58;;;8.30;99.90;;;;;;4859869;29;20056;-60
2023/12/28 05:29:01;;;;;;;39.65;4.88;;;8.30;99.90;;;;;;4875312;29;20389;-60
2023/12/28 05:31:29;;;;;;;31.73;4.63;;;8.30;99.90;;;;;;4877931;29;20053;-62
2023/12/28 05:33:58;;;;;;;30.55;3.60;;;8.20;99.90;;;;;;4863035;29;20061;-63
2023/12/28 05:36:26;;;;;;;24.50;3.55;;;8.20;99.90;;;;;;4864653;29;20041;-65
2023/12/28 05:38:54;;;;;;;35.63;4.10;;;8.20;99.90;;;;;;4871548;29;20045;-64
2023/12/28 05:41:22;;;;;;;30.85;4.43;;;8.20;99.90;;;;;;4877191;29;20064;-65
2023/12/28 05:43:51;;;;;;;40.60;5.28;;;8.10;99.90;;;;;;4877960;29;20049;-62
2023/12/28 05:46:19;;;;;;;32.50;5.15;;;8.10;99.90;;;;;;4877620;29;20406;-62
2023/12/28 05:48:47;;;;;;;31.25;4.97;;;8.10;99.90;;;;;;4861328;29;20395;-69
2023/12/28 05:51:15;;;;;;;29.75;3.35;;;8.10;99.90;;;;;;4855501;29;20414;-69
2023/12/28 05:53:43;;;;;;;37.00;4.53;;;8.20;99.90;;;;;;4871145;29;20413;-63
2023/12/28 05:56:11;;;;;;;31.10;5.05;;;8.10;99.90;;;;;;4874458;29;20049;-65
2023/12/28 05:58:39;;;;;;;29.75;5.10;;;8.20;99.90;;;;;;4864478;29;20685;-66
2023/12/28 06:01:07;;;;;;;29.48;3.63;;;8.20;99.90;;;;;;4859512;29;20049;-64
2023/12/28 06:03:35;;;;;;;29.58;4.32;;;8.20;99.90;;;;;;4864721;29;20045;-62
2023/12/28 06:06:05;;;;;;;19.45;2.85;;;8.20;99.90;;;;;;4873680;29;20055;-62
2023/12/28 06:08:33;;;;;;;25.92;4.45;;;8.20;99.90;;;;;;4871325;29;20049;-64
2023/12/28 06:11:02;;;;;;;23.35;3.47;;;8.30;99.90;;;;;;4877613;29;20065;-68
2023/12/28 06:13:30;;;;;;;29.60;6.65;;;8.30;99.90;;;;;;4861901;29;20054;-64
2023/12/28 06:15:58;;;;;;;27.77;4.65;;;8.30;99.90;;;;;;4859294;29;20052;-63
2023/12/28 06:18:26;;;;;;;38.58;4.90;;;8.40;99.90;;;;;;4865733;29;20045;-63
2023/12/28 06:20:55;;;;;;;27.35;3.45;;;8.40;99.90;;;;;;4870920;29;20424;-64
2023/12/28 06:23:23;;;;;;;25.38;3.60;;;8.50;99.90;;;;;;4868439;29;20534;-62
2023/12/28 06:25:51;;;;;;;22.70;3.45;;;8.50;99.90;;;;;;4874443;29;20056;-61
2023/12/28 06:28:20;;;;;;;16.90;3.30;;;8.50;99.90;;;;;;4868842;29;20048;-66
2023/12/28 06:30:48;;;;;;;37.38;5.45;;;8.50;99.90;;;;;;4854960;29;20533;-63
2023/12/28 06:33:16;;;;;;;28.60;3.58;;;8.60;99.90;;;;;;4860432;29;20049;-71
2023/12/28 06:35:45;;;;;;;27.73;3.38;;;8.60;99.90;;;;;;4861584;29;20552;-63
2023/12/28 06:38:13;;;;;;;26.20;3.47;;;8.60;99.90;;;;;;4869651;29;20669;-64
2023/12/28 06:40:42;;;;;;;32.72;4.32;;;8.60;99.90;;;;;;4857736;29;20053;-64
2023/12/28 06:43:10;;;;;;;26.42;4.18;;;8.60;99.90;;;;;;4869912;29;20053;-63
2023/12/28 06:45:38;;;;;;;22.45;3.25;;;8.60;99.90;;;;;;4876731;29;20057;-63
2023/12/28 06:48:06;;;;;;;21.08;2.83;;;8.60;99.90;;;;;;4870114;29;20073;-63
2023/12/28 06:50:34;;;;;;;22.30;2.88;;;8.60;99.90;;;;;;4855314;29;20073;-64
2023/12/28 06:53:02;;;;;;;19.40;2.38;;;8.50;99.90;;;;;;4860770;29;20406;-70
2023/12/28 06:55:30;;;;;;;25.58;3.20;;;8.50;99.90;;;;;;4858672;29;20065;-66
2023/12/28 06:57:58;;;;;;;23.13;3.28;;;8.50;99.90;;;;;;4864903;29;20053;-66
2023/12/28 07:00:26;;;;;;;22.80;4.38;;;8.40;99.90;;;;;;4873822;29;20052;-63
2023/12/28 07:02:54;;;;;;;23.30;3.22;;;8.50;99.90;;;;;;4863974;29;20054;-63
2023/12/28 07:05:23;;;;;;;26.40;3.67;;;8.50;99.90;;;;;;4859583;29;20054;-63
2023/12/28 07:07:52;;;;;;;18.65;1.90;;;8.50;99.90;;;;;;4859505;29;20056;-63
2023/12/28 07:10:20;;;;;;;9.90;1.17;;;8.50;99.90;;;;;;4875291;29;20057;-62
2023/12/28 07:12:48;;;;;;;15.02;1.95;;;8.50;99.90;;;;;;4865497;29;20065;-64
2023/12/28 07:15:18;;;;;;;10.75;1.05;;;8.50;99.90;;;;;;4855500;29;20053;-63
2023/12/28 07:17:46;;;;;;;13.65;1.70;;;8.30;99.90;;;;;;4855403;29;20064;-64
2023/12/28 07:20:15;;;;;;;7.18;0.73;;;8.00;99.90;;;;;;4855779;29;20053;-62
2023/12/28 07:22:43;;;;;;;10.45;1.65;;;7.70;99.90;;;;;;4862287;29;20060;-62
2023/12/28 07:25:12;;;;;;;7.97;0.90;;;7.50;99.90;;;;;;4873797;29;20045;-61
2023/12/28 07:27:41;;;;;;;10.93;1.55;;;7.40;99.90;;;;;;4871451;29;20055;-62
2023/12/28 07:30:10;;;;;;;5.40;0.77;;;7.30;99.90;;;;;;4876308;29;20053;-61
2023/12/28 07:32:38;;;;;;;6.60;1.05;;;7.20;99.90;;;;;;4866409;29;20053;-62
2023/12/28 07:35:06;;;;;;;5.95;1.05;;;7.10;99.90;;;;;;4854644;29;20148;-62
2023/12/28 07:37:34;;;;;;;4.15;0.90;;;7.00;99.90;;;;;;4857527;29;20462;-62
2023/12/28 07:40:03;;;;;;;9.65;0.82;;;7.00;99.90;;;;;;4857047;29;20061;-65
2023/12/28 07:42:31;;;;;;;7.10;1.13;;;6.90;99.90;;;;;;4861177;29;20045;-69
2023/12/28 07:44:59;;;;;;;7.20;1.70;;;6.90;99.90;;;;;;4859710;29;20621;-61
2023/12/28 07:47:27;;;;;;;12.55;2.25;;;6.90;99.90;;;;;;4859519;29;20057;-62
2023/12/28 07:49:55;;;;;;;12.70;2.00;;;6.90;99.90;;;;;;4859211;29;20045;-62
2023/12/28 07:52:23;;;;;;;17.10;1.98;;;6.90;99.90;;;;;;4861905;29;20061;-62
2023/12/28 07:54:50;;;;;;;12.38;1.80;;;7.00;99.90;;;;;;4876359;29;20521;-61
2023/12/28 07:57:19;;;;;;;24.63;4.18;;;7.00;99.90;;;;;;4875780;29;20041;-61
2023/12/28 07:59:47;;;;;;;19.58;1.52;;;7.00;99.90;;;;;;4874576;29;20056;-64
2023/12/28 08:02:15;;;;;;;18.08;3.13;;;7.00;99.90;;;;;;4872770;29;20057;-66
2023/12/28 08:04:48;;;;;;;16.70;2.33;;;7.00;99.90;;;;;;4861658;29;20630;-65
2023/12/28 08:07:16;;;;;;;29.27;2.88;;;7.00;99.90;;;;;;4872145;29;20056;-66
2023/12/28 08:09:44;;;;;;;14.80;1.95;;;7.00;99.90;;;;;;4868809;29;20136;-62
2023/12/28 08:12:12;;;;;;;23.90;2.38;;;7.00;99.90;;;;;;4861894;29;20045;-62
2023/12/28 08:14:40;;;;;;;10.30;1.60;;;7.00;99.90;;;;;;4858775;29;20057;-61
2023/12/28 08:17:09;;;;;;;16.35;1.65;;;7.00;99.90;;;;;;4866233;29;20048;-64
2023/12/28 08:19:38;;;;;;;15.23;1.48;;;7.00;99.90;;;;;;4858452;29;20057;-62
2023/12/28 08:22:06;;;;;;;17.92;1.77;;;7.00;99.90;;;;;;4869869;29;20048;-61
2023/12/28 08:24:36;;;;;;;9.70;1.38;;;7.00;99.90;;;;;;4875797;29;20053;-62
2023/12/28 08:27:04;;;;;;;13.38;1.33;;;6.90;99.90;;;;;;4875533;29;20052;-61
2023/12/28 08:29:33;;;;;;;11.93;2.42;;;6.90;99.90;;;;;;4875753;29;20056;-63
2023/12/28 08:32:01;;;;;;;5.25;1.10;;;6.90;99.90;;;;;;4874811;29;20057;-63
2023/12/28 08:34:29;;;;;;;16.85;1.45;;;6.90;99.90;;;;;;4861982;29;20048;-61
2023/12/28 08:36:57;;;;;;;3.30;0.80;;;6.90;99.90;;;;;;4875006;29;20057;-61
2023/12/28 08:39:26;;;;;;;7.65;0.85;;;6.90;99.90;;;;;;4861169;29;20057;-61
2023/12/28 08:41:55;;;;;;;13.10;1.27;;;6.90;99.90;;;;;;4853389;29;20054;-63
2023/12/28 08:44:23;;;;;;;8.77;0.85;;;6.90;99.90;;;;;;4860178;29;20045;-62
2023/12/28 08:46:51;;;;;;;10.68;1.92;;;6.90;99.90;;;;;;4865719;29;20056;-63
2023/12/28 08:49:19;;;;;;;6.85;1.23;;;7.00;99.90;;;;;;4854407;29;20056;-63
2023/12/28 08:51:48;;;;;;;15.13;1.48;;;7.00;99.90;;;;;;4855879;29;20053;-68
2023/12/28 08:54:16;;;;;;;17.73;2.22;;;7.00;99.90;;;;;;4859168;29;20638;-65
2023/12/28 08:56:45;;;;;;;10.23;1.75;;;7.00;99.90;;;;;;4858330;29;20375;-64
2023/12/28 08:59:18;;;;;;;18.55;1.50;;;7.10;99.90;;;;;;4856393;29;20052;-69
2023/12/28 09:01:46;;;;;;;14.68;1.75;;;7.10;99.90;;;;;;4855861;29;20064;-63
2023/12/28 09:04:15;;;;;;;18.30;2.25;;;7.20;99.90;;;;;;4870174;29;20045;-63
2023/12/28 09:06:43;;;;;;;15.02;2.03;;;7.20;99.90;;;;;;4862604;29;20128;-67
2023/12/28 09:09:12;;;;;;;11.10;1.60;;;7.20;99.90;;;;;;4869480;29;20080;-69
2023/12/28 09:11:40;;;;;;;15.60;1.63;;;7.10;99.90;;;;;;4872858;29;20446;-63
2023/12/28 09:14:07;;;;;;;12.85;1.60;;;7.10;99.90;;;;;;4873114;29;20067;-68
2023/12/28 09:16:36;;;;;;;21.58;3.70;;;7.10;99.90;;;;;;4868679;29;20056;-64
2023/12/28 09:19:04;;;;;;;15.68;1.92;;;7.20;99.90;;;;;;4866928;29;20054;-69
2023/12/28 09:21:32;;;;;;;15.57;1.95;;;7.20;99.90;;;;;;4855802;29;20053;-65
2023/12/28 09:24:00;;;;;;;21.83;1.85;;;7.20;99.90;;;;;;4872152;29;20053;-66
2023/12/28 09:26:28;;;;;;;12.43;2.75;;;7.20;99.90;;;;;;4861277;29;20056;-68
2023/12/28 09:28:57;;;;;;;18.27;2.70;;;7.20;99.90;;;;;;4855914;29;20049;-67
2023/12/28 09:31:25;;;;;;;16.80;2.37;;;7.30;99.90;;;;;;4855817;29;20487;-62
2023/12/28 09:33:53;;;;;;;16.08;2.28;;;7.30;99.90;;;;;;4870879;29;20049;-61
2023/12/28 09:36:21;;;;;;;14.57;2.75;;;7.30;99.90;;;;;;4857949;29;20065;-68
2023/12/28 09:38:51;;;;;;;16.15;2.88;;;7.40;99.90;;;;;;4866429;29;20057;-61
2023/12/28 09:41:23;;;;;;;16.85;2.58;;;7.40;99.90;;;;;;4865074;29;20044;-61
2023/12/28 09:43:51;;;;;;;22.98;3.00;;;7.50;99.90;;;;;;4872541;29;20056;-66
2023/12/28 09:46:22;;;;;;;11.68;2.17;;;7.50;99.90;;;;;;4870298;29;20572;-65
2023/12/28 09:48:50;;;;;;;18.73;1.50;;;7.50;99.90;;;;;;4858177;29;20053;-63
2023/12/28 09:51:17;;;;;;;14.60;1.67;;;7.60;99.90;;;;;;4856160;29;20053;-61
2023/12/28 09:53:46;;;;;;;17.17;2.05;;;7.60;99.90;;;;;;4857321;29;20046;-62
2023/12/28 09:56:15;;;;;;;14.70;2.00;;;7.60;99.90;;;;;;4859168;29;20045;-65
2023/12/28 09:58:46;;;;;;;19.65;2.30;;;7.70;99.90;;;;;;4866891;29;20053;-61
2023/12/28 10:01:14;;;;;;;17.63;2.05;;;7.70;99.90;;;;;;4877499;29;20061;-63
2023/12/28 10:03:42;;;;;;;14.02;1.98;;;7.80;99.90;;;;;;4866890;29;20049;-61
2023/12/28 10:06:10;;;;;;;16.85;1.98;;;7.80;99.90;;;;;;4829293;29;20056;-61
2023/12/28 10:08:48;;;;;;;8.77;1.90;;;7.80;99.90;;;;;;4857664;29;20056;-61
2023/12/28 10:11:18;;;;;;;11.52;1.70;;;7.90;99.90;;;;;;4864763;29;20501;-61
2023/12/28 10:13:49;;;;;;;13.90;1.90;;;7.90;99.90;;;;;;4858321;29;20050;-61
2023/12/28 10:16:17;;;;;;;12.43;1.35;;;7.90;99.90;;;;;;4864665;29;20041;-61
2023/12/28 10:18:45;;;;;;;13.27;1.70;;;7.90;99.90;;;;;;4869711;29;20045;-61
2023/12/28 10:21:13;;;;;;;13.88;1.85;;;8.00;99.90;;;;;;4853450;29;20049;-61
2023/12/28 10:23:42;;;;;;;13.25;1.40;;;8.00;99.90;;;;;;4861332;29;20053;-61
2023/12/28 10:26:10;;;;;;;14.90;2.50;;;8.10;99.90;;;;;;4855272;29;20056;-60
2023/12/28 10:28:39;;;;;;;18.30;2.30;;;8.10;99.90;;;;;;4859635;29;20072;-62
2023/12/28 10:31:12;;;;;;;16.42;2.50;;;8.10;99.90;;;;;;4879412;29;20041;-62
2023/12/28 10:33:41;;;;;;;12.77;1.50;;;8.10;99.90;;;;;;4859434;29;20431;-61
2023/12/28 10:36:10;;;;;;;13.27;1.73;;;8.10;99.90;;;;;;4868961;29;20046;-62
2023/12/28 10:38:40;;;;;;;10.70;1.83;;;8.20;99.90;;;;;;4865329;29;20064;-62
2023/12/28 10:41:09;;;;;;;3.73;0.87;;;8.20;99.90;;;;;;4863374;29;20064;-66
2023/12/28 10:43:57;;;;;;;10.23;2.20;;;8.20;99.90;;;;;;4867169;29;20053;-63
2023/12/28 10:46:29;;;;;;;12.15;1.48;;;8.20;99.90;;;;;;4867708;29;20041;-70
2023/12/28 10:49:04;;;;;;;7.15;1.65;;;8.20;99.90;;;;;;4858423;29;20049;-62
2023/12/28 10:51:36;;;;;;;11.90;1.50;;;8.30;99.90;;;;;;4864114;29;20041;-61
2023/12/28 10:54:28;;;;;;;5.38;0.85;;;8.40;99.90;;;;;;4870793;29;20661;-61
2023/12/28 10:57:04;;;;;;;10.20;1.45;;;8.40;99.90;;;;;;4866316;29;20522;-61
2023/12/28 10:59:43;;;;;;;6.55;0.88;;;8.40;99.90;;;;;;4862846;29;20383;-61
2023/12/28 11:02:17;;;;;;;8.73;1.17;;;8.40;99.90;;;;;;4865966;29;20056;-61
2023/12/28 11:04:52;;;;;;;6.38;1.02;;;8.40;99.90;;;;;;4875063;29;20060;-64
2023/12/28 11:07:21;;;;;;;5.07;0.70;;;8.40;99.90;;;;;;4859649;29;20057;-63
2023/12/28 11:09:50;;;;;;;3.75;0.63;;;8.50;99.90;;;;;;4861577;29;20048;-63
2023/12/28 11:12:20;;;;;;;7.72;0.90;;;8.40;99.90;;;;;;4858735;29;20052;-61
2023/12/28 11:14:52;;;;;;;6.55;0.82;;;8.30;99.90;;;;;;4863086;29;20063;-60
2023/12/28 11:17:24;;;;;;;7.57;1.00;;;8.30;99.90;;;;;;4868633;29;20052;-64
2023/12/28 11:19:54;;;;;;;4.85;0.73;;;8.30;99.90;;;;;;4859641;29;20057;-64
2023/12/28 11:22:24;;;;;;;6.05;1.10;;;8.30;99.90;;;;;;4873884;29;20556;-64
2023/12/28 11:24:53;;;;;;;11.10;1.25;;;8.20;99.90;;;;;;4870389;29;20071;-61
2023/12/28 11:27:23;;;;;;;8.82;1.23;;;8.30;99.90;;;;;;4867700;29;20061;-69
2023/12/28 11:29:52;;;;;;;19.17;2.05;;;8.20;99.90;;;;;;4872943;29;20517;-68
2023/12/28 11:32:20;;;;;;;16.08;2.92;;;8.20;99.90;;;;;;4861817;29;20049;-65
2023/12/28 11:34:58;;;;;;;19.42;2.30;;;8.20;99.90;;;;;;4860524;29;20426;-63
2023/12/28 11:37:29;;;;;;;17.15;2.33;;;8.20;99.90;;;;;;4865827;29;20052;-61
2023/12/28 11:39:59;;;;;;;12.23;1.02;;;8.20;99.90;;;;;;4856477;29;20060;-63
2023/12/28 11:42:27;;;;;;;13.73;1.63;;;8.20;99.90;;;;;;4860322;29;20413;-62
2023/12/28 11:44:56;;;;;;;7.03;0.93;;;8.20;99.90;;;;;;4875167;29;20048;-63
2023/12/28 11:47:25;;;;;;;11.82;1.38;;;8.20;99.90;;;;;;4873799;29;20053;-63
2023/12/28 11:49:56;;;;;;;10.95;1.50;;;8.20;99.90;;;;;;4862628;29;20482;-62
2023/12/28 11:52:30;;;;;;;5.45;0.88;;;8.10;99.90;;;;;;4867168;29;20049;-64
2023/12/28 11:54:59;;;;;;;2.75;0.70;;;8.10;99.90;;;;;;4856097;29;20569;-63
2023/12/28 11:57:28;;;;;;;3.22;0.50;;;8.00;99.90;;;;;;4867723;29;20049;-66
2023/12/28 11:59:58;;;;;;;6.22;0.60;;;7.90;99.90;;;;;;4852209;29;20057;-68
2023/12/28 12:02:27;;;;;;;2.95;0.30;;;7.80;99.90;;;;;;4860505;29;20045;-66
2023/12/28 12:05:01;;;;;;;2.17;0.73;;;7.70;99.90;;;;;;4866207;29;20056;-63
2023/12/28 12:07:29;;;;;;;3.55;0.40;;;7.70;99.90;;;;;;4857374;29;20493;-62
2023/12/28 12:09:58;;;;;;;3.67;0.93;;;7.60;99.90;;;;;;4875789;29;20057;-65
2023/12/28 12:12:26;;;;;;;1.85;0.43;;;7.60;99.90;;;;;;4857559;29;20054;-64
2023/12/28 12:14:56;;;;;;;2.50;0.20;;;7.60;99.90;;;;;;4860986;29;20072;-62
2023/12/28 12:17:25;;;;;;;1.52;0.20;;;7.60;99.90;;;;;;4861691;29;20380;-66
2023/12/28 12:19:57;;;;;;;2.05;0.20;;;7.60;99.90;;;;;;4862724;29;20522;-64
2023/12/28 12:22:26;;;;;;;3.60;0.47;;;7.60;99.90;;;;;;4858256;29;20056;-68
2023/12/28 12:25:03;;;;;;;1.17;0.20;;;7.60;99.90;;;;;;4857678;29;20501;-66
2023/12/28 12:27:32;;;;;;;3.35;0.52;;;7.70;99.90;;;;;;4863251;29;20427;-63
2023/12/28 12:30:00;;;;;;;1.77;0.20;;;7.70;99.90;;;;;;4873162;29;20057;-63
2023/12/28 12:32:29;;;;;;;4.47;0.40;;;7.70;99.90;;;;;;4859834;29;20561;-61
2023/12/28 12:34:57;;;;;;;3.28;0.40;;;7.70;99.90;;;;;;4863846;29;20045;-62
2023/12/28 12:37:26;;;;;;;2.78;0.40;;;7.70;99.90;;;;;;4856901;29;20072;-62
2023/12/28 12:39:55;;;;;;;3.78;0.20;;;7.70;99.90;;;;;;4856177;29;20057;-62
2023/12/28 12:42:23;;;;;;;3.13;0.57;;;7.70;99.90;;;;;;4859128;29;20065;-62
2023/12/28 12:44:51;;;;;;;3.15;0.75;;;7.80;99.90;;;;;;4870521;29;20060;-60
2023/12/28 12:47:19;;;;;;;2.88;0.45;;;7.80;99.90;;;;;;4874096;29;20501;-63
2023/12/28 12:49:52;;;;;;;3.35;0.57;;;7.90;99.90;;;;;;4855336;29;20053;-61
2023/12/28 12:52:23;;;;;;;5.53;0.85;;;8.00;99.90;;;;;;4859599;29;20056;-65
2023/12/28 12:54:57;;;;;;;1.92;0.43;;;8.00;99.90;;;;;;4870936;29;20050;-63
2023/12/28 12:57:26;;;;;;;3.47;0.50;;;8.20;99.90;;;;;;4868205;29;20054;-61
2023/12/28 12:59:54;;;;;;;3.13;0.40;;;8.50;99.90;;;;;;4872087;29;20049;-63